Time;durP1;ratioP1;P1;durP2;ratioP2;P2;SDS_P1;SDS_P2;PMS_P1;PMS_P2;Temp;Humidity;BMP_temperature;BMP_pressure;BME280_temperature;BME280_humidity;BME280_pressure;Samples;Min_cycle;Max_cycle;Signal;HPM_P1;HPM_P2
2022/11/12 00:00:24;;;;;;;16.67;10.18;;;15.50;99.90;;;;;;4592680;19;20074;-23
2022/11/12 00:02:15;;;;;;;14.55;9.82;;;15.50;99.90;;;;;;4591885;19;20472;-24
2022/11/12 00:03:46;;;;;;;16.85;10.65;;;15.50;99.90;;;;;;4590792;19;20078;-26
2022/11/12 00:05:17;;;;;;;13.55;9.85;;;15.50;99.90;;;;;;4590707;19;20018;-24
2022/11/12 00:06:48;;;;;;;15.27;10.25;;;15.50;99.90;;;;;;4591844;19;20021;-23
2022/11/12 00:08:20;;;;;;;15.63;9.63;;;15.50;99.90;;;;;;4592108;19;20015;-22
2022/11/12 00:09:51;;;;;;;15.35;10.70;;;15.50;99.90;;;;;;4591557;19;20500;-23
2022/11/12 00:11:22;;;;;;;14.73;10.80;;;15.50;99.90;;;;;;4591923;19;20018;-24
2022/11/12 00:12:53;;;;;;;17.92;10.55;;;15.50;99.90;;;;;;4590798;19;20006;-24
2022/11/12 00:14:24;;;;;;;16.25;10.48;;;15.50;99.90;;;;;;4589688;19;20025;-24
2022/11/12 00:15:55;;;;;;;15.00;10.80;;;15.50;99.90;;;;;;4591676;19;20014;-23
2022/11/12 00:17:26;;;;;;;14.50;10.10;;;15.50;99.90;;;;;;4590951;19;20368;-23
2022/11/12 00:18:57;;;;;;;15.30;10.48;;;15.60;99.90;;;;;;4592565;19;20006;-23
2022/11/12 00:20:28;;;;;;;13.95;10.10;;;15.50;99.90;;;;;;4591536;19;20014;-22
2022/11/12 00:21:59;;;;;;;13.98;10.43;;;15.50;99.90;;;;;;4592143;19;20023;-24
2022/11/12 00:23:30;;;;;;;15.20;9.93;;;15.50;99.90;;;;;;4589461;19;20015;-23
2022/11/12 00:25:02;;;;;;;12.07;9.75;;;15.60;99.90;;;;;;4591043;19;20010;-23
2022/11/12 00:26:33;;;;;;;14.18;11.32;;;15.60;99.90;;;;;;4591528;19;20018;-23
2022/11/12 00:28:05;;;;;;;16.55;11.10;;;15.60;99.90;;;;;;4591574;19;20034;-25
2022/11/12 00:29:37;;;;;;;12.93;9.63;;;15.60;99.90;;;;;;4591693;19;20066;-23
2022/11/12 00:31:09;;;;;;;14.35;10.10;;;15.60;99.90;;;;;;4591920;19;20020;-23
2022/11/12 00:32:40;;;;;;;15.05;10.20;;;15.60;99.90;;;;;;4591463;19;20027;-23
2022/11/12 00:34:12;;;;;;;17.63;9.73;;;15.60;99.90;;;;;;4591962;19;20021;-24
2022/11/12 00:35:43;;;;;;;14.52;10.00;;;15.60;99.90;;;;;;4591562;19;20035;-23
2022/11/12 00:37:15;;;;;;;14.23;10.05;;;15.60;99.90;;;;;;4590365;19;20357;-26
2022/11/12 00:38:46;;;;;;;14.25;10.45;;;15.60;99.90;;;;;;4591429;19;20002;-23
2022/11/12 00:40:17;;;;;;;13.82;9.82;;;15.60;99.90;;;;;;4591885;19;20010;-23
2022/11/12 00:41:48;;;;;;;13.90;9.70;;;15.60;99.90;;;;;;4591324;19;20013;-23
2022/11/12 00:43:20;;;;;;;13.45;9.68;;;15.50;99.90;;;;;;4591021;19;20365;-26
2022/11/12 00:44:51;;;;;;;13.27;9.30;;;15.60;99.90;;;;;;4590894;19;20029;-23
2022/11/12 00:46:22;;;;;;;13.13;9.60;;;15.60;99.90;;;;;;4590926;19;20007;-22
2022/11/12 00:47:56;;;;;;;14.80;9.90;;;15.60;99.90;;;;;;4590778;19;20477;-26
2022/11/12 00:49:28;;;;;;;15.20;9.95;;;15.60;99.90;;;;;;4589937;19;20028;-26
2022/11/12 00:51:03;;;;;;;13.95;9.68;;;15.60;99.90;;;;;;4591151;19;20011;-23
2022/11/12 00:52:34;;;;;;;14.25;10.50;;;15.60;99.90;;;;;;4591127;19;20394;-22
2022/11/12 00:54:06;;;;;;;12.15;9.55;;;15.60;99.90;;;;;;4591163;19;20090;-23
2022/11/12 00:55:37;;;;;;;13.55;9.52;;;15.60;99.90;;;;;;4590935;19;20512;-24
2022/11/12 00:57:08;;;;;;;11.27;8.77;;;15.60;99.90;;;;;;4590739;19;20010;-22
2022/11/12 00:58:39;;;;;;;11.23;9.05;;;15.60;99.90;;;;;;4592099;19;20021;-26
2022/11/12 01:00:16;;;;;;;12.35;9.65;;;15.60;99.90;;;;;;4590573;19;20003;-23
2022/11/12 01:01:48;;;;;;;13.55;8.95;;;15.60;99.90;;;;;;4591266;19;20373;-23
2022/11/12 01:03:19;;;;;;;;;;;15.60;99.90;;;;;;4592080;19;20031;-23
2022/11/12 01:04:50;;;;;;;13.23;10.38;;;15.60;99.90;;;;;;4591247;19;19934;-22
2022/11/12 01:06:21;;;;;;;10.55;8.70;;;15.60;99.90;;;;;;4590697;19;20030;-23
2022/11/12 01:07:53;;;;;;;11.65;9.25;;;15.60;99.90;;;;;;4590698;19;20037;-25
2022/11/12 01:09:24;;;;;;;13.57;9.77;;;15.60;99.90;;;;;;4590995;19;20006;-23
2022/11/12 01:10:55;;;;;;;14.88;9.95;;;15.60;99.90;;;;;;4590904;19;20333;-24
2022/11/12 01:12:26;;;;;;;11.73;9.45;;;15.60;99.90;;;;;;4590442;19;20471;-23
2022/11/12 01:14:02;;;;;;;11.40;9.85;;;15.60;99.90;;;;;;4589694;19;20014;-22
2022/11/12 01:15:33;;;;;;;13.65;9.63;;;15.60;99.90;;;;;;4590639;19;20076;-22
2022/11/12 01:17:04;;;;;;;11.75;9.50;;;15.60;99.90;;;;;;4589000;19;20025;-23
2022/11/12 01:18:35;;;;;;;12.98;9.40;;;15.60;99.90;;;;;;4590135;19;20011;-23
2022/11/12 01:20:07;;;;;;;12.77;10.02;;;15.60;99.90;;;;;;4590878;19;20020;-26
2022/11/12 01:21:40;;;;;;;13.55;9.65;;;15.60;99.90;;;;;;4591324;19;20010;-23
2022/11/12 01:23:11;;;;;;;11.93;9.38;;;15.60;99.90;;;;;;4588880;19;20018;-24
2022/11/12 01:24:42;;;;;;;15.05;10.55;;;15.60;99.90;;;;;;4589349;19;20017;-23
2022/11/12 01:26:14;;;;;;;14.30;9.82;;;15.60;99.90;;;;;;4589249;19;20086;-23
2022/11/12 01:27:45;;;;;;;11.68;9.52;;;15.60;99.90;;;;;;4590872;19;20467;-23
2022/11/12 01:29:16;;;;;;;13.00;9.00;;;15.50;99.90;;;;;;4589991;19;20011;-23
2022/11/12 01:30:47;;;;;;;11.57;9.40;;;15.60;99.90;;;;;;4590412;19;20338;-24
2022/11/12 01:32:19;;;;;;;12.00;8.93;;;15.60;99.90;;;;;;4590347;19;20002;-22
2022/11/12 01:33:54;;;;;;;12.90;9.70;;;15.50;99.90;;;;;;4590426;19;20031;-22
2022/11/12 01:35:25;;;;;;;15.73;9.57;;;15.60;99.90;;;;;;4590197;19;20341;-23
2022/11/12 01:36:56;;;;;;;12.73;9.75;;;15.60;99.90;;;;;;4588267;19;20039;-23
2022/11/12 01:38:28;;;;;;;10.55;8.88;;;15.60;99.90;;;;;;4590067;19;20006;-23
2022/11/12 01:39:59;;;;;;;10.70;8.35;;;15.60;99.90;;;;;;4590791;19;20007;-23
2022/11/12 01:41:32;;;;;;;9.98;8.55;;;15.60;99.90;;;;;;4590174;19;20025;-23
2022/11/12 01:43:03;;;;;;;12.80;9.55;;;15.60;99.90;;;;;;4590194;19;20011;-25
2022/11/12 01:44:36;;;;;;;13.27;9.93;;;15.60;99.90;;;;;;4590316;19;20038;-24
2022/11/12 01:46:24;;;;;;;12.52;8.63;;;15.60;99.90;;;;;;4588713;19;20014;-24
2022/11/12 01:47:56;;;;;;;14.40;9.50;;;15.60;99.90;;;;;;4588374;19;20070;-22
2022/11/12 01:49:45;;;;;;;13.70;9.05;;;15.60;99.90;;;;;;4588433;19;20011;-23
2022/11/12 01:51:17;;;;;;;11.93;8.35;;;15.60;99.90;;;;;;4589759;19;20476;-23
2022/11/12 01:52:51;;;;;;;10.45;8.80;;;15.60;99.90;;;;;;4588976;19;20026;-23
2022/11/12 01:54:22;;;;;;;11.05;8.27;;;15.60;99.90;;;;;;4587766;19;20018;-24
2022/11/12 01:55:53;;;;;;;12.82;8.95;;;15.60;99.90;;;;;;4589037;19;20011;-23
2022/11/12 01:57:26;;;;;;;11.23;8.45;;;15.60;99.90;;;;;;4588057;19;20439;-23
2022/11/12 01:59:20;;;;;;;12.23;8.68;;;15.60;99.90;;;;;;4589061;19;20013;-23
2022/11/12 02:00:51;;;;;;;11.70;8.88;;;15.60;99.90;;;;;;4589936;19;20010;-26
2022/11/12 02:02:23;;;;;;;13.73;10.27;;;15.60;99.90;;;;;;4588678;19;20042;-22
2022/11/12 02:03:55;;;;;;;11.50;9.32;;;15.50;99.90;;;;;;4588424;19;20022;-24
2022/11/12 02:05:27;;;;;;;9.52;8.30;;;15.50;99.90;;;;;;4589691;19;20031;-23
2022/11/12 02:06:58;;;;;;;9.57;7.57;;;15.50;99.90;;;;;;4588618;19;20018;-23
2022/11/12 02:08:29;;;;;;;11.73;8.65;;;15.50;99.90;;;;;;4588634;19;20078;-23
2022/11/12 02:10:00;;;;;;;11.27;7.95;;;15.50;99.90;;;;;;4588448;19;20071;-23
2022/11/12 02:11:31;;;;;;;9.52;7.10;;;15.50;99.90;;;;;;4588949;19;20003;-23
2022/11/12 02:14:52;;;;;;;9.80;7.80;;;15.50;99.90;;;;;;4589717;19;20088;-22
2022/11/12 02:16:28;;;;;;;10.77;8.38;;;15.50;99.90;;;;;;4589131;19;20011;-23
2022/11/12 02:17:59;;;;;;;10.98;8.13;;;15.50;99.90;;;;;;4588743;19;20015;-22
2022/11/12 02:19:30;;;;;;;8.80;7.57;;;15.60;99.90;;;;;;4588488;19;20006;-24
2022/11/12 02:21:07;;;;;;;11.40;8.43;;;15.50;99.90;;;;;;4589138;19;20011;-23
2022/11/12 02:22:38;;;;;;;11.27;8.07;;;15.50;99.90;;;;;;4588250;19;20385;-23
2022/11/12 02:24:12;;;;;;;9.90;8.15;;;15.60;99.90;;;;;;4589711;19;20011;-22
2022/11/12 02:25:43;;;;;;;11.75;8.85;;;15.50;99.90;;;;;;4589152;19;20015;-23
2022/11/12 02:27:14;;;;;;;12.27;8.05;;;15.50;99.90;;;;;;4589278;19;20035;-23
2022/11/12 02:28:45;;;;;;;10.15;7.30;;;15.50;99.90;;;;;;4589790;19;20018;-23
2022/11/12 02:30:30;;;;;;;9.80;8.20;;;15.60;99.90;;;;;;4589924;19;19999;-23
2022/11/12 02:32:01;;;;;;;11.63;8.63;;;15.50;99.90;;;;;;4589113;19;20015;-23
2022/11/12 02:33:32;;;;;;;9.00;7.25;;;15.50;99.90;;;;;;4589273;19;20011;-23
2022/11/12 02:35:03;;;;;;;10.35;7.80;;;15.50;99.90;;;;;;4589881;19;20035;-23
2022/11/12 02:36:34;;;;;;;9.77;8.50;;;15.50;99.90;;;;;;4590005;19;20456;-23
2022/11/12 02:38:06;;;;;;;10.98;7.90;;;15.50;99.90;;;;;;4593513;19;20495;-24
2022/11/12 02:39:37;;;;;;;11.38;8.07;;;15.50;99.90;;;;;;4593714;19;20504;-23
2022/11/12 02:41:08;;;;;;;11.23;7.65;;;15.50;99.90;;;;;;4592886;19;20475;-25
2022/11/12 02:42:39;;;;;;;10.02;7.47;;;15.50;99.90;;;;;;4593267;19;20013;-22
2022/11/12 02:44:10;;;;;;;7.78;6.60;;;15.50;99.90;;;;;;4593662;19;20419;-25
2022/11/12 02:45:41;;;;;;;9.48;6.90;;;15.50;99.90;;;;;;4593630;19;20023;-23
2022/11/12 02:47:12;;;;;;;8.82;7.47;;;15.50;99.90;;;;;;4593612;19;20460;-24
2022/11/12 02:48:44;;;;;;;11.57;7.72;;;15.50;99.90;;;;;;4592616;19;20014;-23
2022/11/12 02:50:15;;;;;;;11.43;6.97;;;15.50;99.90;;;;;;4593572;19;20013;-23
2022/11/12 02:51:46;;;;;;;11.18;8.55;;;15.50;99.90;;;;;;4593528;19;20358;-23
2022/11/12 02:53:17;;;;;;;10.25;7.70;;;15.50;99.90;;;;;;4594018;19;20030;-23
2022/11/12 02:54:48;;;;;;;10.02;7.55;;;15.50;99.90;;;;;;4593271;19;20010;-22
2022/11/12 02:56:19;;;;;;;10.57;7.30;;;15.50;99.90;;;;;;4593516;19;20021;-23
2022/11/12 02:57:51;;;;;;;9.07;7.60;;;15.50;99.90;;;;;;4593535;19;20469;-23
2022/11/12 02:59:22;;;;;;;11.07;8.02;;;15.50;99.90;;;;;;4593453;19;20030;-26
2022/11/12 03:00:53;;;;;;;9.38;6.97;;;15.50;99.90;;;;;;4593242;19;20041;-23
2022/11/12 03:02:24;;;;;;;8.82;7.72;;;15.50;99.90;;;;;;4593319;19;20482;-25
2022/11/12 03:03:55;;;;;;;8.43;7.53;;;15.50;99.90;;;;;;4593573;19;20010;-22
2022/11/12 03:05:28;;;;;;;8.88;6.80;;;15.50;99.90;;;;;;4593270;19;20014;-23
2022/11/12 03:06:59;;;;;;;9.05;7.35;;;15.50;99.90;;;;;;4592973;19;20026;-26
2022/11/12 03:08:30;;;;;;;9.52;7.35;;;15.50;99.90;;;;;;4593145;19;20021;-25
2022/11/12 03:10:01;;;;;;;10.98;8.32;;;15.50;99.90;;;;;;4593680;19;20078;-23
2022/11/12 03:11:32;;;;;;;10.30;7.03;;;15.50;99.90;;;;;;4592962;19;20014;-22
2022/11/12 03:13:04;;;;;;;9.70;6.90;;;15.50;99.90;;;;;;4592984;19;20119;-23
2022/11/12 03:14:35;;;;;;;9.52;6.95;;;15.50;99.90;;;;;;4593171;19;20479;-23
2022/11/12 03:16:06;;;;;;;10.85;7.68;;;15.50;99.90;;;;;;4593681;19;20021;-23
2022/11/12 03:17:37;;;;;;;10.70;7.03;;;15.50;99.90;;;;;;4590443;19;20348;-22
2022/11/12 03:19:08;;;;;;;9.15;6.85;;;15.50;99.90;;;;;;4592538;19;20019;-23
2022/11/12 03:20:39;;;;;;;11.38;8.73;;;15.50;99.90;;;;;;4592995;19;20493;-23
2022/11/12 03:22:11;;;;;;;9.15;7.00;;;15.50;99.90;;;;;;4593221;19;20391;-23
2022/11/12 03:23:42;;;;;;;9.88;7.32;;;15.50;99.90;;;;;;4591572;19;20371;-22
2022/11/12 03:25:13;;;;;;;10.15;8.32;;;15.50;99.90;;;;;;4592615;19;20015;-24
2022/11/12 03:26:44;;;;;;;10.40;7.97;;;15.50;99.90;;;;;;4590509;19;20006;-23
2022/11/12 03:28:15;;;;;;;9.50;8.13;;;15.50;99.90;;;;;;4591988;19;20011;-24
2022/11/12 03:29:46;;;;;;;11.05;8.55;;;15.50;99.90;;;;;;4592764;19;20010;-23
2022/11/12 03:31:17;;;;;;;10.25;8.00;;;15.50;99.90;;;;;;4593033;19;20014;-23
2022/11/12 03:32:48;;;;;;;9.75;8.27;;;15.50;99.90;;;;;;4593217;19;20468;-23
2022/11/12 03:34:20;;;;;;;10.05;8.23;;;15.50;99.90;;;;;;4592327;19;20015;-22
2022/11/12 03:35:51;;;;;;;12.48;9.88;;;15.50;99.90;;;;;;4592587;19;20333;-23
2022/11/12 03:37:22;;;;;;;12.25;9.60;;;15.50;99.90;;;;;;4591989;19;20341;-23
2022/11/12 03:38:53;;;;;;;13.18;9.60;;;15.50;99.90;;;;;;4593221;19;20011;-22
2022/11/12 03:40:24;;;;;;;14.85;11.45;;;15.50;99.90;;;;;;4592289;19;20077;-22
2022/11/12 03:41:55;;;;;;;13.00;9.95;;;15.50;99.90;;;;;;4592733;19;20027;-23
2022/11/12 03:43:26;;;;;;;13.05;10.25;;;15.40;99.90;;;;;;4592437;19;20039;-23
2022/11/12 03:44:57;;;;;;;13.90;10.88;;;15.50;99.90;;;;;;4592690;19;20354;-23
2022/11/12 03:46:28;;;;;;;12.68;10.25;;;15.50;99.90;;;;;;4592353;19;20394;-24
2022/11/12 03:47:59;;;;;;;14.52;9.57;;;15.40;99.90;;;;;;4591204;19;20022;-23
2022/11/12 03:49:30;;;;;;;14.15;10.55;;;15.50;99.90;;;;;;4588673;19;20480;-23
2022/11/12 03:51:01;;;;;;;14.18;10.50;;;15.50;99.90;;;;;;4591809;19;20100;-23
2022/11/12 03:52:33;;;;;;;15.27;10.68;;;15.50;99.90;;;;;;4592194;19;20038;-23
2022/11/12 03:54:04;;;;;;;12.13;10.00;;;15.50;99.90;;;;;;4592386;19;20022;-24
2022/11/12 03:55:35;;;;;;;12.75;9.95;;;15.50;99.90;;;;;;4592399;19;20010;-22
2022/11/12 03:57:06;;;;;;;15.68;10.55;;;15.50;99.90;;;;;;4591403;19;20018;-23
2022/11/12 03:58:37;;;;;;;13.80;10.32;;;15.50;99.90;;;;;;4592605;19;20015;-22
2022/11/12 04:00:10;;;;;;;14.75;10.43;;;15.50;99.90;;;;;;4592522;19;20014;-23
2022/11/12 04:01:41;;;;;;;13.02;10.63;;;15.50;99.90;;;;;;4592226;19;20027;-26
2022/11/12 04:03:12;;;;;;;14.93;11.55;;;15.50;99.90;;;;;;4591914;19;20045;-22
2022/11/12 04:08:34;;;;;;;12.77;10.45;;;15.50;99.90;;;;;;4592008;19;20031;-23
2022/11/12 04:10:06;;;;;;;10.63;9.35;;;15.50;99.90;;;;;;4592679;19;20020;-22
2022/11/12 04:11:37;;;;;;;13.85;10.57;;;15.50;99.90;;;;;;4591846;19;20013;-22
2022/11/12 04:13:26;;;;;;;11.82;9.40;;;15.50;99.90;;;;;;4592119;19;20007;-23
2022/11/12 04:14:57;;;;;;;15.43;10.88;;;15.50;99.90;;;;;;4592080;19;20015;-23
2022/11/12 04:21:59;;;;;;;14.95;11.45;;;15.50;99.90;;;;;;4590418;19;20023;-22
2022/11/12 04:23:30;;;;;;;14.85;11.35;;;15.50;99.90;;;;;;4590576;19;20010;-24
2022/11/12 04:26:51;;;;;;;15.00;11.00;;;15.50;99.90;;;;;;4592192;19;19999;-22
2022/11/12 04:28:22;;;;;;;14.10;11.25;;;15.50;99.90;;;;;;4590192;19;20454;-23
2022/11/12 04:31:43;;;;;;;16.50;11.88;;;15.50;99.90;;;;;;4591289;19;20069;-22
2022/11/12 04:33:14;;;;;;;14.57;12.10;;;15.50;99.90;;;;;;4592099;19;20007;-22
2022/11/12 04:34:46;;;;;;;15.68;12.57;;;15.50;99.90;;;;;;4591070;19;20024;-23
2022/11/12 04:36:17;;;;;;;13.77;11.05;;;15.50;99.90;;;;;;4590302;19;20014;-22
2022/11/12 04:37:48;;;;;;;15.82;11.90;;;15.50;99.90;;;;;;4590072;19;20035;-24
2022/11/12 04:39:19;;;;;;;16.30;11.10;;;15.50;99.90;;;;;;4592213;19;20006;-23
2022/11/12 04:46:19;;;;;;;15.68;12.38;;;15.50;99.90;;;;;;4591368;19;20021;-23
2022/11/12 04:47:50;;;;;;;15.70;12.05;;;15.50;99.90;;;;;;4590095;19;20015;-23
2022/11/12 04:49:21;;;;;;;14.75;11.68;;;15.40;99.90;;;;;;4589644;19;20019;-23
2022/11/12 04:51:00;;;;;;;15.45;11.93;;;15.50;99.90;;;;;;4590858;19;20508;-25
2022/11/12 04:52:31;;;;;;;14.75;11.35;;;15.50;99.90;;;;;;4590120;19;20038;-23
2022/11/12 04:54:03;;;;;;;13.43;11.25;;;15.50;99.90;;;;;;4591203;19;20010;-22
2022/11/12 04:55:34;;;;;;;14.10;11.45;;;15.50;99.90;;;;;;4590780;19;20015;-23
2022/11/12 04:57:05;;;;;;;15.98;11.93;;;15.50;99.90;;;;;;4590603;19;20010;-24
2022/11/12 04:58:36;;;;;;;13.15;10.55;;;15.50;99.90;;;;;;4591038;19;20362;-24
2022/11/12 05:00:08;;;;;;;16.30;12.27;;;15.50;99.90;;;;;;4590863;19;20021;-29
2022/11/12 05:01:39;;;;;;;;;;;15.50;99.90;;;;;;4591668;19;20062;-22
2022/11/12 05:03:10;;;;;;;15.30;11.88;;;15.50;99.90;;;;;;4591167;19;19926;-24
2022/11/12 05:04:41;;;;;;;18.38;12.48;;;15.50;99.90;;;;;;4591299;19;20038;-22
2022/11/12 05:08:02;;;;;;;16.27;13.02;;;15.50;99.90;;;;;;4590442;19;20019;-23
2022/11/12 05:09:33;;;;;;;13.80;12.02;;;15.50;99.90;;;;;;4590900;19;20027;-23
2022/11/12 05:11:05;;;;;;;15.15;11.10;;;15.50;99.90;;;;;;4590869;19;20022;-22
2022/11/12 05:12:36;;;;;;;14.80;11.50;;;15.50;99.90;;;;;;4591462;19;20007;-23
2022/11/12 05:14:07;;;;;;;16.23;11.68;;;15.50;99.90;;;;;;4590430;19;20038;-23
2022/11/12 05:15:38;;;;;;;16.55;12.30;;;15.50;99.90;;;;;;4590192;19;20467;-22
2022/11/12 05:17:09;;;;;;;15.25;11.32;;;15.50;99.90;;;;;;4589671;19;20073;-22
2022/11/12 05:18:40;;;;;;;13.95;11.50;;;15.50;99.90;;;;;;4590734;19;20474;-23
2022/11/12 05:20:12;;;;;;;15.90;12.77;;;15.50;99.90;;;;;;4590792;19;20018;-22
2022/11/12 05:23:33;;;;;;;13.57;11.88;;;15.50;99.90;;;;;;4590491;19;20105;-23
2022/11/12 05:25:04;;;;;;;13.23;11.10;;;15.50;99.90;;;;;;4591043;19;20039;-22
2022/11/12 05:26:36;;;;;;;;;;;15.50;99.90;;;;;;4591322;19;20018;-22
2022/11/12 05:28:07;;;;;;;13.48;10.30;;;15.50;99.90;;;;;;4590234;19;19914;-23
2022/11/12 05:29:38;;;;;;;12.75;10.75;;;15.50;99.90;;;;;;4591101;19;20033;-23
2022/11/12 05:31:09;;;;;;;13.90;11.20;;;15.50;99.90;;;;;;4590107;19;20011;-22
2022/11/12 05:32:40;;;;;;;12.18;10.32;;;15.50;99.90;;;;;;4590437;19;20015;-22
2022/11/12 05:34:11;;;;;;;12.02;10.32;;;15.50;99.90;;;;;;4590371;19;20014;-23
2022/11/12 05:35:43;;;;;;;13.55;10.75;;;15.50;99.90;;;;;;4589838;19;20007;-23
2022/11/12 05:37:14;;;;;;;11.75;9.77;;;15.50;99.90;;;;;;4589060;19;20039;-26
2022/11/12 05:38:45;;;;;;;11.38;9.95;;;15.50;99.90;;;;;;4590588;19;20017;-23
2022/11/12 05:40:16;;;;;;;11.63;9.90;;;15.50;99.90;;;;;;4590201;19;20019;-23
2022/11/12 05:41:47;;;;;;;12.77;10.40;;;15.50;99.90;;;;;;4591044;19;20010;-24
2022/11/12 05:43:18;;;;;;;12.10;9.77;;;15.50;99.90;;;;;;4589991;19;20021;-22
2022/11/12 05:44:49;;;;;;;12.10;9.82;;;15.50;99.90;;;;;;4590331;19;20033;-22
2022/11/12 05:46:20;;;;;;;11.85;9.77;;;15.50;99.90;;;;;;4590722;19;19999;-25
2022/11/12 05:47:52;;;;;;;12.57;10.00;;;15.50;99.90;;;;;;4590503;19;20014;-23
2022/11/12 05:49:23;;;;;;;12.63;10.23;;;15.50;99.90;;;;;;4587482;19;20564;-22
2022/11/12 05:50:54;;;;;;;11.82;10.05;;;15.50;99.90;;;;;;4589580;19;20352;-22
2022/11/12 05:52:25;;;;;;;16.27;12.13;;;15.50;99.90;;;;;;4590180;19;20014;-23
2022/11/12 05:53:56;;;;;;;12.65;11.00;;;15.50;99.90;;;;;;4589742;19;20034;-23
2022/11/12 05:55:27;;;;;;;14.23;10.23;;;15.50;99.90;;;;;;4590062;19;20019;-23
2022/11/12 05:56:58;;;;;;;13.25;10.57;;;15.50;99.90;;;;;;4589519;19;20018;-23
2022/11/12 05:58:30;;;;;;;11.18;9.80;;;15.50;99.90;;;;;;4590414;19;20330;-23
2022/11/12 06:00:01;;;;;;;13.98;10.85;;;15.50;99.90;;;;;;4589398;19;20014;-22
2022/11/12 06:01:34;;;;;;;16.25;12.55;;;15.50;99.90;;;;;;4588704;19;20011;-24
2022/11/12 06:03:11;;;;;;;17.30;13.27;;;15.50;99.90;;;;;;4588568;19;20356;-22
2022/11/12 06:04:43;;;;;;;18.52;14.70;;;15.50;99.90;;;;;;4590194;19;19999;-23
2022/11/12 06:06:14;;;;;;;19.83;15.65;;;15.50;99.90;;;;;;4589756;19;20013;-25
2022/11/12 06:07:45;;;;;;;20.13;16.00;;;15.50;99.90;;;;;;4589470;19;20058;-24
2022/11/12 06:09:16;;;;;;;19.23;15.90;;;15.50;99.90;;;;;;4590221;19;20007;-23
2022/11/12 06:10:48;;;;;;;18.92;14.48;;;15.50;99.90;;;;;;4590600;19;19999;-23
2022/11/12 06:12:19;;;;;;;15.38;12.68;;;15.50;99.90;;;;;;4592395;19;20034;-24
2022/11/12 06:13:50;;;;;;;17.60;14.27;;;15.50;99.90;;;;;;4594643;19;20011;-22
2022/11/12 06:15:25;;;;;;;14.63;12.48;;;15.50;99.90;;;;;;4594914;19;20020;-23
2022/11/12 06:16:56;;;;;;;16.55;13.75;;;15.50;99.90;;;;;;4593527;19;20007;-23
2022/11/12 06:18:28;;;;;;;17.85;14.32;;;15.50;99.90;;;;;;4594355;19;20070;-23
2022/11/12 06:19:59;;;;;;;17.10;14.88;;;15.50;99.90;;;;;;4594569;19;20011;-23
2022/11/12 06:21:30;;;;;;;16.77;14.90;;;15.50;99.90;;;;;;4597226;19;20105;-26
2022/11/12 06:23:01;;;;;;;17.50;15.40;;;15.50;99.90;;;;;;4593984;19;20013;-23
2022/11/12 06:24:32;;;;;;;17.88;15.27;;;15.50;99.90;;;;;;4594445;19;20014;-22
2022/11/12 06:26:03;;;;;;;15.68;13.82;;;15.50;99.90;;;;;;4593769;19;20014;-23
2022/11/12 06:27:34;;;;;;;15.50;13.85;;;15.50;99.90;;;;;;4594639;19;20006;-26
2022/11/12 06:29:05;;;;;;;17.13;13.93;;;15.50;99.90;;;;;;4593557;19;20010;-23
2022/11/12 06:30:37;;;;;;;17.73;15.05;;;15.50;99.90;;;;;;4593777;19;20360;-24
2022/11/12 06:32:08;;;;;;;16.58;14.63;;;15.50;99.90;;;;;;4594458;19;20031;-22
2022/11/12 06:33:39;;;;;;;17.30;14.30;;;15.50;99.90;;;;;;4594126;19;20345;-24
2022/11/12 06:35:10;;;;;;;17.23;15.40;;;15.50;99.90;;;;;;4593888;19;20013;-22
2022/11/12 06:36:42;;;;;;;17.35;15.45;;;15.50;99.90;;;;;;4593882;19;20046;-22
2022/11/12 06:38:13;;;;;;;17.58;15.68;;;15.50;99.90;;;;;;4591651;19;20453;-23
2022/11/12 06:39:44;;;;;;;18.92;15.55;;;15.50;99.90;;;;;;4592666;19;20360;-22
2022/11/12 06:41:15;;;;;;;16.50;14.75;;;15.50;99.90;;;;;;4594066;19;20017;-23
2022/11/12 06:42:46;;;;;;;16.42;14.68;;;15.50;99.90;;;;;;4592811;19;20010;-22
2022/11/12 06:44:17;;;;;;;17.00;14.63;;;15.50;99.90;;;;;;4593272;19;20018;-23
2022/11/12 06:45:48;;;;;;;18.55;16.23;;;15.50;99.90;;;;;;4592176;19;20007;-24
2022/11/12 06:47:19;;;;;;;19.13;17.05;;;15.50;99.90;;;;;;4593167;19;20018;-23
2022/11/12 06:48:51;;;;;;;18.77;16.52;;;15.50;99.90;;;;;;4591904;19;20082;-24
2022/11/12 06:50:22;;;;;;;18.05;16.15;;;15.50;99.90;;;;;;4592510;19;20015;-22
2022/11/12 06:51:53;;;;;;;18.80;15.38;;;15.50;99.90;;;;;;4592446;19;20007;-23
2022/11/12 06:53:24;;;;;;;16.90;15.10;;;15.50;99.90;;;;;;4593478;19;20021;-24
2022/11/12 06:54:55;;;;;;;17.42;15.55;;;15.60;99.90;;;;;;4593465;19;20018;-24
2022/11/12 06:56:26;;;;;;;16.20;14.32;;;15.60;99.90;;;;;;4592497;19;20042;-23
2022/11/12 06:57:58;;;;;;;14.68;12.98;;;15.70;99.90;;;;;;4590524;19;20010;-23
2022/11/12 06:59:29;;;;;;;14.73;12.95;;;15.80;99.90;;;;;;4593204;19;20006;-23
2022/11/12 07:01:11;;;;;;;15.02;12.35;;;15.80;99.90;;;;;;4593506;19;20465;-22
2022/11/12 07:02:42;;;;;;;13.77;10.68;;;15.90;99.90;;;;;;4593126;19;20044;-22
2022/11/12 07:04:13;;;;;;;13.68;10.90;;;15.90;99.90;;;;;;4592272;19;20022;-25
2022/11/12 07:05:44;;;;;;;13.43;12.02;;;16.00;99.90;;;;;;4593147;19;20074;-23
2022/11/12 07:07:16;;;;;;;12.25;10.57;;;16.00;99.90;;;;;;4593788;19;20023;-23
2022/11/12 07:08:48;;;;;;;13.57;10.57;;;16.00;99.90;;;;;;4592987;19;20349;-24
2022/11/12 07:10:19;;;;;;;12.80;11.27;;;16.00;99.90;;;;;;4593045;19;20014;-22
2022/11/12 07:11:50;;;;;;;14.90;11.90;;;16.00;99.90;;;;;;4593208;19;20464;-22
2022/11/12 07:13:22;;;;;;;15.18;12.98;;;16.00;99.90;;;;;;4590724;19;20078;-23
2022/11/12 07:14:54;;;;;;;14.18;11.10;;;16.00;99.90;;;;;;4592171;19;20018;-25
2022/11/12 07:16:24;;;;;;;;;;;15.90;99.90;;;;;;4594123;19;20010;-24
2022/11/12 07:17:55;;;;;;;13.82;11.75;;;15.90;99.90;;;;;;4591747;19;19919;-23
2022/11/12 07:19:27;;;;;;;12.07;10.73;;;15.90;99.90;;;;;;4592871;19;20352;-22
2022/11/12 07:21:01;;;;;;;12.00;10.55;;;15.90;99.90;;;;;;4593067;19;20014;-24
2022/11/12 07:22:33;;;;;;;10.27;8.98;;;15.90;99.90;;;;;;4593034;19;20031;-22
2022/11/12 07:24:04;;;;;;;;;;;15.90;99.90;;;;;;4593979;19;20390;-22
2022/11/12 07:25:35;;;;;;;12.10;10.13;;;16.00;99.90;;;;;;4592755;19;20265;-24
2022/11/12 07:27:06;;;;;;;12.18;10.13;;;16.00;99.90;;;;;;4592675;19;20040;-24
2022/11/12 07:28:37;;;;;;;12.93;10.38;;;15.90;99.90;;;;;;4592825;19;20006;-23
2022/11/12 07:30:09;;;;;;;13.18;11.63;;;16.00;99.90;;;;;;4592958;19;20019;-22
2022/11/12 07:31:41;;;;;;;11.88;10.30;;;15.90;99.90;;;;;;4592651;19;20342;-22
2022/11/12 07:33:12;;;;;;;11.32;9.57;;;15.90;99.90;;;;;;4593242;19;20021;-23
2022/11/12 07:34:43;;;;;;;11.98;10.27;;;16.00;99.90;;;;;;4592054;19;20014;-23
2022/11/12 07:36:15;;;;;;;13.23;10.40;;;16.00;99.90;;;;;;4591567;19;20002;-22
2022/11/12 07:37:47;;;;;;;14.32;10.90;;;16.00;99.90;;;;;;4591383;19;20006;-23
2022/11/12 07:39:18;;;;;;;14.00;11.35;;;16.00;99.90;;;;;;4592945;19;20021;-23
2022/11/12 07:40:49;;;;;;;14.38;11.18;;;16.00;99.90;;;;;;4592837;19;20044;-22
2022/11/12 07:42:20;;;;;;;14.45;10.40;;;15.90;99.90;;;;;;4589947;19;20389;-22
2022/11/12 07:43:51;;;;;;;15.63;11.02;;;16.00;99.90;;;;;;4591865;19;20014;-23
2022/11/12 07:45:22;;;;;;;16.30;12.30;;;15.90;99.90;;;;;;4591553;19;20080;-24
2022/11/12 07:46:54;;;;;;;13.00;10.65;;;15.90;99.90;;;;;;4592471;19;20014;-24
2022/11/12 07:48:25;;;;;;;13.05;10.48;;;15.90;99.90;;;;;;4591324;19;20018;-22
2022/11/12 07:49:56;;;;;;;11.63;10.10;;;15.90;99.90;;;;;;4591600;19;20014;-23
2022/11/12 07:51:28;;;;;;;12.65;10.27;;;15.90;99.90;;;;;;4592216;19;20006;-24
2022/11/12 07:52:59;;;;;;;;;;;15.90;99.90;;;;;;4593307;19;20080;-24
2022/11/12 07:54:30;;;;;;;13.27;9.68;;;15.90;99.90;;;;;;4592240;19;19923;-23
2022/11/12 07:56:03;;;;;;;13.82;9.15;;;15.90;99.90;;;;;;4592525;19;20015;-22
2022/11/12 07:57:34;;;;;;;10.60;9.05;;;15.90;99.90;;;;;;4591583;19;20010;-24
2022/11/12 07:59:06;;;;;;;13.05;9.80;;;15.90;99.90;;;;;;4592386;19;20014;-23
2022/11/12 08:00:37;;;;;;;12.25;8.95;;;15.90;99.90;;;;;;4592086;19;20010;-24
2022/11/12 08:02:10;;;;;;;11.57;9.07;;;15.90;99.90;;;;;;4592566;19;20017;-26
2022/11/12 08:03:41;;;;;;;11.73;9.63;;;16.00;99.90;;;;;;4592794;19;20011;-23
2022/11/12 08:05:12;;;;;;;11.57;9.50;;;16.00;99.90;;;;;;4591773;19;20030;-24
2022/11/12 08:06:43;;;;;;;12.25;8.95;;;16.00;99.90;;;;;;4593243;19;20070;-23
2022/11/12 08:08:14;;;;;;;10.82;8.85;;;16.00;99.90;;;;;;4593109;19;20034;-23
2022/11/12 08:09:45;;;;;;;9.70;8.43;;;16.00;99.90;;;;;;4592728;19;19995;-24
2022/11/12 08:11:16;;;;;;;9.30;8.18;;;16.00;99.90;;;;;;4589545;19;20014;-23
2022/11/12 08:12:47;;;;;;;10.38;8.02;;;16.10;99.90;;;;;;4591641;19;20021;-25
2022/11/12 08:14:19;;;;;;;11.10;8.82;;;16.10;99.90;;;;;;4592066;19;20023;-23